Time;durP1;ratioP1;P1;durP2;ratioP2;P2;SDS_P1;SDS_P2;PMS_P1;PMS_P2;Temp;Humidity;BMP_temperature;BMP_pressure;BME280_temperature;BME280_humidity;BME280_pressure;Samples;Min_cycle;Max_cycle;Signal;HPM_P1;HPM_P2
2021/12/04 00:02:25;;;;;;;;;0.75;0.75;;;;;9.04;88.24;99252.00;5036491;28;45209;-57
2021/12/04 00:04:53;;;;;;;;;1.00;1.00;;;;;9.02;87.63;99235.00;5036618;28;45290;-58
2021/12/04 00:07:18;;;;;;;;;0.80;0.00;;;;;9.07;88.88;99227.72;5036940;28;45313;-59
2021/12/04 00:09:49;;;;;;;;;0.00;0.00;;;;;8.98;87.54;99210.00;5035209;28;46384;-60
2021/12/04 00:12:15;;;;;;;;;0.00;0.00;;;;;9.19;87.65;99221.41;5036202;28;45325;-56
2021/12/04 00:14:41;;;;;;;;;0.00;0.00;;;;;9.22;88.34;99218.19;5036876;28;45369;-54
2021/12/04 00:17:07;;;;;;;;;0.00;0.00;;;;;9.16;88.28;99199.97;5035352;28;45379;-55
2021/12/04 00:19:33;;;;;;;;;0.40;0.40;;;;;9.23;87.63;99208.88;5034132;28;46145;-58
2021/12/04 00:21:59;;;;;;;;;0.00;0.00;;;;;9.31;88.29;99199.47;5034771;28;45456;-60
2021/12/04 00:24:24;;;;;;;;;1.50;0.75;;;;;9.31;88.46;99197.59;5034683;28;45465;-60
2021/12/04 00:26:50;;;;;;;;;0.00;0.00;;;;;9.39;89.24;99198.28;5036134;28;45396;-60
2021/12/04 00:29:16;;;;;;;;;0.20;0.20;;;;;9.38;89.08;99199.34;5036304;28;45487;-59
2021/12/04 00:32:03;;;;;;;;;0.00;0.00;;;;;9.48;89.58;99207.75;5051797;28;45690;-53
2021/12/04 00:34:31;;;;;;;;;0.00;0.00;;;;;9.55;88.81;99199.44;5036327;28;45290;-52
2021/12/04 00:37:09;;;;;;;;;0.60;0.20;;;;;9.55;88.92;99194.75;5036606;28;45451;-52
2021/12/04 00:50:31;;;;;;;;;0.40;0.40;;;;;9.82;89.04;99183.22;5035464;28;45793;-54
2021/12/04 00:52:56;;;;;;;;;0.00;0.00;;;;;9.88;88.16;99192.38;5036213;28;45443;-55
2021/12/04 00:55:22;;;;;;;;;0.00;0.00;;;;;9.90;88.44;99176.53;5036142;28;45796;-55
2021/12/04 00:57:48;;;;;;;;;0.00;0.00;;;;;9.93;88.42;99173.28;5035949;28;45494;-57
2021/12/04 01:00:13;;;;;;;;;0.00;0.00;;;;;10.00;89.03;99184.94;5034255;28;46052;-59
2021/12/04 01:02:39;;;;;;;;;0.00;0.00;;;;;10.03;87.66;99183.59;5034266;28;45488;-60
2021/12/04 01:05:04;;;;;;;;;0.00;0.00;;;;;10.10;88.71;99164.25;5034707;28;45440;-61
2021/12/04 01:07:30;;;;;;;;;0.00;0.00;;;;;10.13;88.02;99188.44;5036220;28;45577;-59
2021/12/04 01:09:55;;;;;;;;;1.00;0.00;;;;;10.14;88.02;99190.13;5067950;28;46217;-55
2021/12/04 01:12:21;;;;;;;;;0.00;0.00;;;;;10.16;87.79;99183.28;5034099;28;45518;-50
2021/12/04 01:14:46;;;;;;;;;1.00;0.00;;;;;10.02;87.84;99152.63;5035205;28;45443;-58
2021/12/04 01:17:12;;;;;;;;;0.00;0.00;;;;;10.22;87.53;99178.72;5034333;28;45587;-58
2021/12/04 01:19:38;;;;;;;;;0.00;0.00;;;;;10.27;87.76;99186.22;5035059;28;45685;-54
2021/12/04 01:22:04;;;;;;;;;1.00;0.00;;;;;10.30;89.82;99194.78;5035239;28;45361;-57
2021/12/04 01:24:30;;;;;;;;;0.60;0.00;;;;;10.35;88.47;99180.31;5033921;28;45260;-60
2021/12/04 01:26:56;;;;;;;;;0.00;0.00;;;;;10.12;87.78;99146.50;5067529;28;45596;-61
2021/12/04 01:29:22;;;;;;;;;0.00;0.00;;;;;10.27;87.76;99167.00;5067369;28;48766;-60
2021/12/04 01:31:47;;;;;;;;;0.00;0.00;;;;;10.04;89.03;99133.19;5016994;28;45432;-60
2021/12/04 01:34:13;;;;;;;;;0.00;0.00;;;;;10.02;89.12;99129.84;5033900;28;45349;-56
2021/12/04 01:36:38;;;;;;;;;0.00;0.00;;;;;10.36;87.21;99175.66;5035332;28;45615;-58
2021/12/04 01:39:04;;;;;;;;;0.00;0.00;;;;;10.39;87.04;99180.63;5017056;28;46914;-52
2021/12/04 01:41:29;;;;;;;;;0.75;0.00;;;;;10.39;88.47;99175.16;5034857;28;45426;-54
2021/12/04 01:43:58;;;;;;;;;0.50;0.00;;;;;10.19;88.14;99154.53;5034997;28;45483;-59
2021/12/04 01:46:23;;;;;;;;;0.00;0.00;;;;;10.27;87.99;99156.03;5035168;28;45321;-57
2021/12/04 01:48:49;;;;;;;;;0.00;0.00;;;;;10.43;87.74;99185.44;5019671;28;45763;-60
2021/12/04 01:51:14;;;;;;;;;0.00;0.00;;;;;10.44;88.33;99186.25;5055227;28;45400;-61
2021/12/04 01:53:40;;;;;;;;;0.00;0.00;;;;;10.47;88.86;99187.66;5055222;28;45337;-60
2021/12/04 01:56:05;;;;;;;;;0.00;0.00;;;;;10.46;89.30;99191.50;5055376;28;45291;-57
2021/12/04 01:58:31;;;;;;;;;0.00;0.00;;;;;10.50;88.38;99185.25;5054741;28;46457;-53
2021/12/04 02:00:56;;;;;;;;;0.00;0.00;;;;;10.53;88.78;99186.66;5055097;28;45354;-57
2021/12/04 02:03:22;;;;;;;;;0.00;0.00;;;;;10.55;89.31;99201.78;5054575;28;45567;-58
2021/12/04 02:05:48;;;;;;;;;0.00;0.00;;;;;10.58;88.88;99193.06;5051717;28;45406;-58
2021/12/04 02:08:23;;;;;;;;;0.00;0.00;;;;;10.47;87.85;99168.47;5053343;28;46989;-60
2021/12/04 02:10:51;;;;;;;;;0.00;0.00;;;;;10.74;87.11;99192.47;5054388;28;45361;-56
2021/12/04 02:13:17;;;;;;;;;0.00;0.00;;;;;10.83;87.23;99190.94;5054488;28;45452;-59
2021/12/04 02:15:43;;;;;;;;;0.00;0.00;;;;;10.89;86.41;99184.44;5053602;28;45582;-57
2021/12/04 02:18:08;;;;;;;;;0.00;0.00;;;;;10.94;86.40;99194.69;5054367;28;45455;-60
2021/12/04 02:20:34;;;;;;;;;0.00;0.00;;;;;11.00;85.58;99185.44;5053603;28;45412;-61
2021/12/04 02:23:04;;;;;;;;;0.00;0.00;;;;;11.05;85.65;99193.75;5054655;28;45281;-60
2021/12/04 02:25:29;;;;;;;;;0.00;0.00;;;;;11.05;85.71;99185.50;5054700;28;45488;-55
2021/12/04 02:27:55;;;;;;;;;0.00;0.00;;;;;11.13;85.36;99203.47;5054365;28;46907;-53
2021/12/04 02:30:24;;;;;;;;;0.00;0.00;;;;;11.02;85.09;99172.28;5053215;28;45410;-52
2021/12/04 02:32:50;;;;;;;;;0.00;0.00;;;;;11.19;84.56;99191.47;5055104;28;45612;-59
2021/12/04 02:35:15;;;;;;;;;0.00;0.00;;;;;11.19;84.52;99191.47;5053689;28;45367;-61
2021/12/04 02:37:41;;;;;;;;;0.00;0.00;;;;;11.18;84.77;99198.03;5054632;28;47148;-61
2021/12/04 02:40:09;;;;;;;;;0.00;0.00;;;;;11.16;85.16;99202.94;5053452;28;45338;-61
2021/12/04 02:42:35;;;;;;;;;0.00;0.00;;;;;10.98;84.69;99179.38;5055977;28;45510;-58
2021/12/04 02:45:02;;;;;;;;;0.00;0.00;;;;;10.97;84.84;99172.22;5051814;28;45641;-51
2021/12/04 02:47:28;;;;;;;;;0.00;0.00;;;;;11.15;85.16;99203.22;5036644;28;45760;-55
2021/12/04 02:49:54;;;;;;;;;0.00;0.00;;;;;11.17;85.37;99195.56;5038259;28;45306;-58
2021/12/04 02:52:19;;;;;;;;;0.00;0.00;;;;;11.17;85.07;99206.53;5032805;28;45347;-60
2021/12/04 02:54:45;;;;;;;;;0.00;0.00;;;;;11.17;84.88;99203.78;5051725;28;45324;-59
2021/12/04 02:57:12;;;;;;;;;0.00;0.00;;;;;11.10;85.02;99209.47;5055562;28;45373;-61
2021/12/04 02:59:38;;;;;;;;;0.00;0.00;;;;;11.17;85.13;99207.38;5056591;28;45386;-65
2021/12/04 03:02:15;;;;;;;;;0.60;0.00;;;;;11.16;84.11;99208.44;5058030;28;45429;-57
2021/12/04 03:04:40;;;;;;;;;0.00;0.00;;;;;11.05;84.81;99192.94;5058164;28;45312;-61
2021/12/04 03:07:06;;;;;;;;;0.00;0.00;;;;;11.07;85.01;99197.09;5057750;28;46277;-60
2021/12/04 03:09:31;;;;;;;;;0.00;0.00;;;;;11.21;84.43;99213.19;5056509;28;45459;-60
2021/12/04 03:12:00;;;;;;;;;0.00;0.00;;;;;11.01;85.07;99189.84;5058012;28;45399;-53
2021/12/04 03:14:25;;;;;;;;;1.00;0.00;;;;;11.22;85.14;99207.41;5057956;28;45669;-55
2021/12/04 03:16:51;;;;;;;;;1.00;0.00;;;;;10.95;85.23;99169.72;5056036;28;45941;-56
2021/12/04 03:19:18;;;;;;;;;0.00;0.00;;;;;11.18;86.16;99199.94;5057451;28;45468;-61
2021/12/04 03:21:43;;;;;;;;;0.00;0.00;;;;;11.18;86.01;99197.22;5057535;28;45466;-62
2021/12/04 03:24:12;;;;;;;;;0.00;0.00;;;;;10.80;85.27;99142.06;5057869;28;45625;-61
2021/12/04 03:26:38;;;;;;;;;0.00;0.00;;;;;11.12;85.75;99201.81;5056018;28;48550;-61
2021/12/04 03:29:08;;;;;;;;;0.00;0.00;;;;;11.11;86.45;99205.63;5057199;28;45387;-56
2021/12/04 03:42:17;;;;;;;;;0.80;0.00;;;;;11.10;84.93;99182.03;5057107;28;45286;-61
2021/12/04 03:44:43;;;;;;;;;0.75;0.00;;;;;11.16;84.45;99188.41;5056077;28;45268;-60
2021/12/04 03:47:09;;;;;;;;;0.00;0.00;;;;;11.18;84.12;99183.47;5036826;28;45970;-55
2021/12/04 03:49:35;;;;;;;;;0.40;0.40;;;;;11.19;83.90;99182.38;5036557;28;45432;-58
2021/12/04 03:52:01;;;;;;;;;0.75;0.00;;;;;11.23;84.18;99191.78;5036686;28;45262;-56
2021/12/04 03:54:26;;;;;;;;;0.00;0.00;;;;;11.25;83.49;99193.19;5034513;28;45542;-52
2021/12/04 03:57:02;;;;;;;;;0.00;0.00;;;;;11.28;83.09;99189.13;5036222;28;46684;-56
2021/12/04 03:59:28;;;;;;;;;0.00;0.00;;;;;11.30;83.30;99186.94;5036741;28;45412;-57
2021/12/04 04:01:53;;;;;;;;;0.00;0.00;;;;;11.30;83.30;99186.13;5035102;28;45462;-56
2021/12/04 04:04:19;;;;;;;;;0.00;0.00;;;;;11.30;83.43;99194.38;5035743;28;45402;-57
2021/12/04 04:06:44;;;;;;;;;0.00;0.00;;;;;11.15;83.11;99168.34;5035066;28;45490;-58
2021/12/04 04:09:10;;;;;;;;;0.25;0.00;;;;;10.74;83.59;99104.66;5036544;28;45475;-57
2021/12/04 04:11:36;;;;;;;;;2.00;0.00;;;;;11.29;83.19;99195.41;5036203;28;45298;-60
2021/12/04 04:14:03;;;;;;;;;0.00;0.00;;;;;11.28;83.54;99197.34;5036283;28;45435;-60
2021/12/04 04:16:29;;;;;;;;;0.00;0.00;;;;;11.22;83.14;99181.91;5036398;28;45920;-58
2021/12/04 04:18:54;;;;;;;;;0.00;0.00;;;;;11.27;83.57;99200.34;5034909;28;45348;-60
2021/12/04 04:21:20;;;;;;;;;0.00;0.00;;;;;11.25;83.57;99197.84;5036390;28;45286;-55
2021/12/04 04:23:45;;;;;;;;;0.50;0.00;;;;;10.67;84.16;99097.44;5036635;28;45295;-56
2021/12/04 04:26:11;;;;;;;;;0.75;0.00;;;;;11.20;83.92;99184.88;5035850;28;46390;-56
2021/12/04 04:28:36;;;;;;;;;0.00;0.00;;;;;10.71;83.67;99108.72;5035875;28;45168;-60
2021/12/04 04:31:02;;;;;;;;;0.00;0.00;;;;;11.14;84.35;99177.66;5036563;28;45306;-62
2021/12/04 04:33:29;;;;;;;;;0.00;0.00;;;;;11.15;84.38;99181.25;5035038;28;45571;-61
2021/12/04 04:36:07;;;;;;;;;0.00;0.00;;;;;11.17;84.45;99196.38;5018319;28;47883;-60
2021/12/04 04:38:45;;;;;;;;;0.80;0.40;;;;;11.10;84.64;99193.00;5025168;28;46053;-61
2021/12/04 04:58:05;;;;;;;;;0.00;0.00;;;;;11.05;83.71;99184.69;5034383;28;45428;-61
2021/12/04 05:11:16;;;;;;;;;0.00;0.00;;;;;11.09;83.23;99153.72;5033671;28;45483;-54
2021/12/04 05:13:42;;;;;;;;;0.00;0.00;;;;;11.15;83.00;99165.59;5035583;28;45376;-51
2021/12/04 05:16:17;;;;;;;;;0.00;0.00;;;;;11.20;83.08;99165.66;5035958;28;45218;-56
2021/12/04 05:18:56;;;;;;;;;0.00;0.00;;;;;11.25;82.73;99175.88;5018807;28;47685;-54
2021/12/04 05:21:22;;;;;;;;;0.00;0.00;;;;;11.27;82.03;99178.38;5034121;28;45481;-60
2021/12/04 05:23:54;;;;;;;;;1.75;0.75;;;;;11.29;81.80;99171.53;5035570;28;45410;-60
2021/12/04 05:26:24;;;;;;;;;0.00;0.00;;;;;11.32;82.23;99171.03;5035436;28;45593;-50
2021/12/04 05:28:51;;;;;;;;;0.00;0.00;;;;;11.33;82.03;99174.59;5034187;28;46188;-59
2021/12/04 05:31:16;;;;;;;;;0.00;0.00;;;;;11.34;81.82;99176.25;5035186;28;45370;-58
2021/12/04 05:33:42;;;;;;;;;0.00;0.00;;;;;11.36;82.00;99176.84;5034226;28;45467;-55
2021/12/04 05:36:08;;;;;;;;;0.00;0.00;;;;;11.34;81.48;99174.38;5034490;28;45712;-54
2021/12/04 05:38:33;;;;;;;;;0.00;0.00;;;;;11.32;81.61;99159.22;5034202;28;46652;-55
2021/12/04 05:40:59;;;;;;;;;0.00;0.00;;;;;11.39;81.65;99168.91;5035506;28;45368;-56
2021/12/04 05:43:25;;;;;;;;;0.00;0.00;;;;;11.32;81.79;99154.53;5035273;28;45329;-54
2021/12/04 05:46:11;;;;;;;;;1.00;0.00;;;;;11.27;81.57;99145.41;5015587;28;45396;-55
2021/12/04 05:48:48;;;;;;;;;0.00;0.00;;;;;11.33;81.88;99172.72;5035046;28;45467;-57
2021/12/04 05:56:17;;;;;;;;;0.00;0.00;;;;;11.42;81.94;99175.81;5035483;28;45722;-56
2021/12/04 05:58:43;;;;;;;;;1.00;0.00;;;;;11.43;81.47;99174.75;5016969;28;47152;-54
2021/12/04 06:01:09;;;;;;;;;1.75;0.00;;;;;11.41;81.85;99178.84;5033783;28;45456;-53
2021/12/04 06:03:34;;;;;;;;;0.00;0.00;;;;;11.42;82.01;99184.06;5034760;28;45451;-57
2021/12/04 06:06:00;;;;;;;;;0.00;0.00;;;;;11.24;81.51;99147.59;5035345;28;45480;-55
2021/12/04 06:08:26;;;;;;;;;0.00;0.00;;;;;11.40;81.42;99164.25;5033410;28;46135;-55
2021/12/04 06:10:51;;;;;;;;;1.00;0.00;;;;;11.39;81.35;99157.09;5017249;28;45464;-58
2021/12/04 06:13:17;;;;;;;;;0.00;0.00;;;;;11.31;81.54;99152.88;5034656;28;45456;-61
2021/12/04 06:15:42;;;;;;;;;0.00;0.00;;;;;11.42;81.73;99173.06;5050858;28;45559;-61
2021/12/04 06:18:08;;;;;;;;;0.00;0.00;;;;;11.25;81.58;99140.16;5035471;28;45934;-65
2021/12/04 06:23:19;;;;;;;;;0.00;0.00;;;;;11.36;81.78;99166.69;5038195;28;45270;-59
2021/12/04 06:25:44;;;;;;;;;2.50;0.00;;;;;11.36;81.55;99165.84;5038530;28;45340;-58
2021/12/04 06:28:10;;;;;;;;;0.00;0.00;;;;;11.20;81.49;99131.91;5037375;28;46894;-57
2021/12/04 06:30:37;;;;;;;;;0.00;0.00;;;;;11.37;81.33;99148.31;5036543;28;45626;-57
2021/12/04 06:33:04;;;;;;;;;0.00;0.00;;;;;11.39;81.91;99140.63;5038080;28;45401;-60
2021/12/04 06:35:31;;;;;;;;;0.00;0.00;;;;;11.36;81.36;99141.13;5020286;28;45454;-60
2021/12/04 06:37:57;;;;;;;;;0.00;0.00;;;;;11.29;81.39;99129.50;5019637;28;48005;-61
2021/12/04 06:40:26;;;;;;;;;0.00;0.00;;;;;11.32;81.84;99142.75;5037037;28;45346;-61
2021/12/04 06:42:51;;;;;;;;;1.20;0.00;;;;;11.34;81.58;99137.81;5037715;28;45388;-55
2021/12/04 06:45:17;;;;;;;;;0.00;0.00;;;;;11.37;81.98;99143.63;5036428;28;45475;-62
2021/12/04 06:47:51;;;;;;;;;0.00;0.00;;;;;11.34;81.72;99130.41;5037572;28;45626;-59
2021/12/04 06:51:01;;;;;;;;;0.00;0.00;;;;;11.36;82.25;99133.72;5037530;28;45246;-61
2021/12/04 06:53:14;;;;;;;;;0.00;0.00;;;;;11.37;81.99;99137.31;5029039;28;45376;-57
2021/12/04 06:55:44;;;;;;;;;0.00;0.00;;;;;11.32;82.22;99129.00;5006219;28;45992;-64
2021/12/04 06:58:10;;;;;;;;;0.00;0.00;;;;;11.35;82.97;99139.47;5036352;28;45380;-54
2021/12/04 07:00:36;;;;;;;;;1.00;0.00;;;;;11.34;83.20;99129.56;5037243;28;45393;-59
2021/12/04 07:03:01;;;;;;;;;0.00;0.00;;;;;11.33;83.53;99127.91;5037368;28;45329;-58
2021/12/04 07:05:27;;;;;;;;;0.00;0.00;;;;;11.34;83.17;99124.91;5037891;28;45492;-57
2021/12/04 07:07:52;;;;;;;;;0.00;0.00;;;;;11.32;83.08;99127.06;5037198;28;46526;-58
2021/12/04 07:10:18;;;;;;;;;1.00;0.25;;;;;11.31;83.08;99128.16;5037226;28;45161;-61
2021/12/04 07:12:43;;;;;;;;;2.00;0.50;;;;;11.27;83.68;99117.94;5036426;28;45505;-61
2021/12/04 07:15:10;;;;;;;;;1.00;0.50;;;;;11.29;83.87;99116.63;5036506;28;45664;-60
2021/12/04 07:17:35;;;;;;;;;0.00;0.00;;;;;11.21;83.82;99104.16;5037171;28;46172;-60
2021/12/04 07:20:03;;;;;;;;;0.00;0.00;;;;;11.16;84.26;99095.84;5037171;28;45421;-60
2021/12/04 07:22:28;;;;;;;;;1.00;1.00;;;;;11.30;84.47;99112.78;5019367;28;45428;-59
2021/12/04 07:24:54;;;;;;;;;0.00;0.00;;;;;11.30;84.16;99114.72;5037022;28;45303;-58
2021/12/04 07:27:19;;;;;;;;;0.00;0.00;;;;;11.30;84.03;99117.47;5035391;28;47676;-59
2021/12/04 07:29:45;;;;;;;;;2.00;0.00;;;;;11.25;84.57;99099.81;5037299;28;45373;-55
2021/12/04 07:32:10;;;;;;;;;0.00;0.00;;;;;11.30;83.93;99110.03;5037470;28;45349;-60
2021/12/04 07:34:36;;;;;;;;;2.00;0.00;;;;;11.30;85.01;99107.28;5037273;28;45669;-61
2021/12/04 07:37:03;;;;;;;;;1.00;1.00;;;;;11.30;84.69;99103.72;5035614;28;45355;-60
2021/12/04 07:39:29;;;;;;;;;0.00;0.00;;;;;11.31;84.47;99110.88;5035212;28;45528;-60
2021/12/04 07:41:54;;;;;;;;;0.00;0.00;;;;;11.30;85.14;99115.53;5037068;28;45411;-59
2021/12/04 07:44:20;;;;;;;;;0.50;0.50;;;;;11.30;85.02;99112.78;5035441;28;45559;-58
2021/12/04 07:46:45;;;;;;;;;0.00;0.00;;;;;11.29;84.89;99116.63;5036850;28;46408;-57
2021/12/04 07:49:11;;;;;;;;;0.00;0.00;;;;;11.30;83.80;99111.97;5036731;28;45519;-59
2021/12/04 07:51:37;;;;;;;;;0.75;0.00;;;;;11.33;84.38;99119.69;5036836;28;45496;-56
2021/12/04 07:54:02;;;;;;;;;0.00;0.00;;;;;11.34;84.14;99099.34;5052262;28;45402;-60
2021/12/04 07:56:28;;;;;;;;;0.50;0.00;;;;;11.36;83.85;99120.00;5068984;28;46041;-61
2021/12/04 07:58:54;;;;;;;;;0.00;0.00;;;;;11.38;83.58;99119.75;5016009;28;45700;-59
2021/12/04 08:01:20;;;;;;;;;0.00;0.00;;;;;11.39;83.51;99113.16;5028384;28;45415;-60
2021/12/04 08:03:45;;;;;;;;;0.00;0.00;;;;;11.45;83.60;99120.38;5029702;28;45643;-60
2021/12/04 08:06:11;;;;;;;;;0.00;0.00;;;;;11.48;83.09;99122.59;5036283;28;45508;-60
2021/12/04 08:08:36;;;;;;;;;0.00;0.00;;;;;11.49;82.83;99124.25;5036218;28;45261;-57
2021/12/04 08:11:04;;;;;;;;;0.00;0.00;;;;;11.37;81.40;99110.66;5035269;28;45416;-59
2021/12/04 08:13:29;;;;;;;;;0.00;0.00;;;;;11.57;81.98;99133.13;5036907;28;45508;-55
2021/12/04 08:15:55;;;;;;;;;0.50;0.00;;;;;11.47;81.64;99095.41;5035169;28;45421;-61
2021/12/04 08:18:21;;;;;;;;;0.00;0.00;;;;;11.48;80.44;99091.56;5068533;28;45771;-60
2021/12/04 08:20:47;;;;;;;;;0.00;0.00;;;;;11.56;80.56;99118.56;5036278;28;45514;-60
2021/12/04 08:23:13;;;;;;;;;0.00;0.00;;;;;11.65;80.63;99133.47;5036503;28;45411;-61
2021/12/04 08:25:38;;;;;;;;;0.00;0.00;;;;;11.57;81.43;99120.22;5035922;28;45693;-61
2021/12/04 08:28:04;;;;;;;;;0.00;0.00;;;;;11.36;81.75;99116.41;5068458;28;45483;-60
2021/12/04 08:30:32;;;;;;;;;1.00;0.00;;;;;11.45;81.73;99147.00;5069040;28;45320;-52
2021/12/04 08:32:58;;;;;;;;;0.00;0.00;;;;;11.47;81.77;99155.84;5036769;28;45274;-57
2021/12/04 08:35:25;;;;;;;;;0.00;0.00;;;;;11.43;81.22;99150.03;5035243;28;46811;-60
2021/12/04 08:37:51;;;;;;;;;0.00;0.00;;;;;11.41;80.67;99162.34;5036016;28;45479;-61
2021/12/04 08:40:17;;;;;;;;;0.60;0.00;;;;;11.40;80.55;99158.75;5035281;28;45446;-60
2021/12/04 08:42:43;;;;;;;;;1.00;0.00;;;;;11.19;79.94;99133.78;5018631;28;45562;-60
2021/12/04 08:45:09;;;;;;;;;0.00;0.00;;;;;11.20;80.06;99151.94;5034690;28;46162;-58
2021/12/04 08:47:35;;;;;;;;;0.00;0.00;;;;;11.34;79.71;99168.03;5035943;28;45162;-56
2021/12/04 08:50:00;;;;;;;;;0.00;0.00;;;;;11.36;79.44;99168.59;5035698;28;45431;-56
2021/12/04 08:52:26;;;;;;;;;0.00;0.00;;;;;11.34;78.79;99155.13;5036666;28;45305;-58
2021/12/04 08:54:51;;;;;;;;;0.00;0.00;;;;;11.31;78.41;99174.03;5034371;28;47367;-60
2021/12/04 08:57:17;;;;;;;;;0.00;0.00;;;;;11.30;78.44;99183.38;5034417;28;45248;-62
2021/12/04 08:59:45;;;;;;;;;0.00;0.00;;;;;11.27;78.99;99176.47;5020913;28;46030;-61
2021/12/04 09:02:11;;;;;;;;;0.00;0.00;;;;;11.26;78.67;99196.75;5030078;28;46069;-63
2021/12/04 09:04:37;;;;;;;;;1.00;0.00;;;;;11.21;78.18;99196.72;5035603;28;46019;-56
2021/12/04 09:07:03;;;;;;;;;0.00;0.00;;;;;11.10;78.25;99204.78;5035861;28;45463;-52
2021/12/04 09:09:29;;;;;;;;;1.00;0.00;;;;;11.06;76.97;99184.41;5035884;28;45386;-55
2021/12/04 09:11:59;;;;;;;;;0.00;0.00;;;;;11.02;75.62;99198.91;5035688;28;45291;-54
2021/12/04 09:14:25;;;;;;;;;0.00;0.00;;;;;10.88;76.01;99190.22;5017747;28;46956;-60
2021/12/04 09:16:52;;;;;;;;;0.60;0.00;;;;;11.05;75.48;99231.38;5035470;28;45314;-58
2021/12/04 09:19:18;;;;;;;;;0.20;0.20;;;;;11.01;74.75;99233.78;5034421;28;45408;-55
2021/12/04 09:21:44;;;;;;;;;1.20;0.40;;;;;11.04;73.84;99229.69;5034740;28;45390;-54
2021/12/04 10:04:48;;;;;;;;;0.00;0.00;;;;;11.47;70.14;99293.19;5034879;28;45324;-58
2021/12/04 10:23:34;;;;;;;;;0.00;0.00;;;;;11.17;68.70;99306.22;5020965;28;45542;-59
2021/12/04 10:34:25;;;;;;;;;0.00;0.00;;;;;11.11;68.70;99312.72;5034858;28;45435;-57
2021/12/04 10:36:52;;;;;;;;;0.60;0.00;;;;;11.11;68.30;99323.72;5034956;28;45686;-55
2021/12/04 10:39:17;;;;;;;;;2.60;0.00;;;;;10.68;68.49;99241.78;5033124;28;45440;-57
2021/12/04 10:41:44;;;;;;;;;0.00;0.00;;;;;11.17;69.02;99321.88;5034488;28;45684;-58
2021/12/04 10:44:31;;;;;;;;;0.00;0.00;;;;;11.16;68.64;99325.69;5033791;28;45400;-59
2021/12/04 10:47:05;;;;;;;;;0.00;0.00;;;;;11.16;68.79;99323.78;5033090;28;45571;-57
2021/12/04 10:55:32;;;;;;;;;0.00;0.00;;;;;11.07;68.61;99337.09;5034603;28;45543;-55
2021/12/04 11:38:30;;;;;;;;;1.00;1.00;;;;;10.27;74.22;99409.19;5015554;28;45449;-55
2021/12/04 11:41:13;;;;;;;;;0.80;0.80;;;;;10.12;75.14;99417.06;5049192;28;45397;-55
2021/12/04 11:46:40;;;;;;;;;3.40;1.00;;;;;9.88;73.40;99406.97;5016456;28;45464;-58
2021/12/04 11:49:13;;;;;;;;;1.60;1.00;;;;;9.82;73.32;99407.09;5017123;28;45401;-58
2021/12/04 11:51:59;;;;;;;;;1.60;1.60;;;;;9.81;74.78;99406.25;5016540;28;45499;-59
2021/12/04 11:54:30;;;;;;;;;1.60;1.60;;;;;9.89;75.13;99427.00;5017047;28;45734;-59
2021/12/04 11:57:04;;;;;;;;;3.40;2.80;;;;;9.93;75.14;99430.09;5016834;28;45427;-52
2021/12/04 11:59:30;;;;;;;;;1.40;1.40;;;;;9.89;75.15;99416.03;5031765;28;45258;-56
2021/12/04 12:02:00;;;;;;;;;2.80;1.80;;;;;9.95;74.25;99422.44;5016761;28;45402;-53
2021/12/04 12:04:52;;;;;;;;;2.00;2.00;;;;;10.02;74.23;99434.13;5016424;28;45944;-54
2021/12/04 12:07:24;;;;;;;;;2.60;2.60;;;;;9.96;74.08;99424.97;5027703;28;45265;-56
2021/12/04 12:10:03;;;;;;;;;1.00;1.00;;;;;9.97;71.20;99429.38;5015430;28;45487;-57
2021/12/04 12:12:34;;;;;;;;;2.40;2.00;;;;;9.96;72.81;99451.53;5017094;28;45342;-54
2021/12/04 12:15:04;;;;;;;;;4.80;3.20;;;;;9.84;71.51;99430.47;5015004;28;45486;-56
2021/12/04 12:17:39;;;;;;;;;2.60;1.80;;;;;9.93;71.04;99444.59;5015505;28;45466;-59
2021/12/04 12:20:10;;;;;;;;;1.40;1.00;;;;;10.01;71.37;99457.13;5048661;28;45504;-56
2021/12/04 12:22:43;;;;;;;;;1.80;1.00;;;;;10.06;69.77;99465.47;5014249;28;45545;-55
2021/12/04 12:36:28;;;;;;;;;6.20;3.00;;;;;9.81;69.61;99487.66;5056278;28;45472;-61
2021/12/04 12:39:15;;;;;;;;;4.80;3.80;;;;;9.95;69.06;99512.91;5056036;28;45333;-62
2021/12/04 12:41:41;;;;;;;;;6.20;4.00;;;;;10.05;69.01;99515.91;5088348;27;45260;-59
2021/12/04 12:44:15;;;;;;;;;4.40;4.40;;;;;10.20;68.05;99520.06;5056627;28;45208;-54
2021/12/04 12:46:43;;;;;;;;;5.60;2.40;;;;;10.37;68.16;99531.13;5053696;28;47738;-59
2021/12/04 12:49:28;;;;;;;;;1.60;1.00;;;;;10.45;66.92;99525.28;5015855;28;45660;-61
2021/12/04 12:52:08;;;;;;;;;4.80;2.40;;;;;10.25;66.92;99501.81;5032149;28;46688;-61
2021/12/04 12:54:58;;;;;;;;;7.00;4.40;;;;;10.46;67.09;99548.09;5034888;28;45530;-60
2021/12/04 12:57:25;;;;;;;;;3.60;3.00;;;;;10.20;64.82;99493.47;5035428;28;45342;-55
2021/12/04 13:11:57;;;;;;;;;1.60;1.20;;;;;9.84;63.07;99534.59;5035284;28;45521;-56
2021/12/04 13:14:28;;;;;;;;;6.60;2.00;;;;;9.81;63.41;99551.50;5040170;28;45344;-59
2021/12/04 13:17:25;;;;;;;;;10.40;7.60;;;;;9.71;62.35;99532.91;5034847;28;45502;-59
2021/12/04 13:19:53;;;;;;;;;2.60;2.00;;;;;9.70;63.75;99524.91;5034183;28;46483;-61
2021/12/04 13:22:26;;;;;;;;;3.20;3.20;;;;;9.78;65.11;99549.25;5024356;28;45369;-56
2021/12/04 13:24:53;;;;;;;;;2.20;2.00;;;;;9.73;62.98;99536.22;5022319;28;45341;-54
2021/12/04 13:30:24;;;;;;;;;3.00;3.00;;;;;9.74;62.43;99543.41;5067885;28;45376;-57
2021/12/04 13:32:55;;;;;;;;;5.50;3.75;;;;;9.85;61.21;99547.22;5051465;28;45517;-56
2021/12/04 13:35:22;;;;;;;;;3.00;1.00;;;;;9.86;59.37;99548.03;5050338;28;45542;-56
2021/12/04 13:37:55;;;;;;;;;2.80;2.20;;;;;9.80;59.44;99551.72;5052732;28;45615;-53
2021/12/04 13:40:21;;;;;;;;;2.20;1.60;;;;;9.81;59.00;99561.66;5058894;28;48545;-61
2021/12/04 13:42:47;;;;;;;;;4.00;2.00;;;;;9.69;60.43;99548.75;5015587;28;46331;-57
2021/12/04 13:45:15;;;;;;;;;1.40;1.40;;;;;9.74;60.62;99551.63;5048996;28;45858;-60
2021/12/04 13:47:41;;;;;;;;;3.00;3.00;;;;;9.69;58.96;99542.41;5050364;28;45434;-55
2021/12/04 13:52:52;;;;;;;;;2.60;2.00;;;;;9.67;59.55;99539.09;5070595;28;45326;-55
2021/12/04 13:55:18;;;;;;;;;4.20;2.00;;;;;9.70;59.78;99535.88;5061171;27;45409;-57
2021/12/04 13:57:44;;;;;;;;;6.00;3.75;;;;;9.42;59.51;99485.31;5049796;28;45380;-60
2021/12/04 14:00:11;;;;;;;;;6.00;4.25;;;;;9.82;59.76;99538.66;5050220;28;45334;-61
2021/12/04 14:02:36;;;;;;;;;2.60;1.00;;;;;9.90;59.99;99544.63;5055490;28;45440;-59
2021/12/04 14:05:07;;;;;;;;;2.00;1.50;;;;;9.96;60.63;99551.03;5061961;28;45475;-57
2021/12/04 14:07:33;;;;;;;;;2.40;2.40;;;;;9.63;57.80;99503.97;5050414;28;45294;-57
2021/12/04 14:10:08;;;;;;;;;1.40;1.00;;;;;9.84;59.29;99542.81;5048393;28;46560;-58
2021/12/04 14:12:34;;;;;;;;;5.40;2.20;;;;;9.78;60.54;99538.28;5047525;28;45415;-58
2021/12/04 14:15:07;;;;;;;;;1.00;1.00;;;;;9.86;59.58;99554.38;5051948;28;45424;-55
2021/12/04 14:17:33;;;;;;;;;1.80;1.80;;;;;9.85;59.34;99560.09;5048836;28;45461;-59
2021/12/04 14:19:58;;;;;;;;;4.25;1.75;;;;;9.76;58.28;99554.09;5064477;28;45393;-59
2021/12/04 14:22:25;;;;;;;;;1.00;1.00;;;;;9.74;58.59;99564.47;5037786;28;45679;-60
2021/12/04 14:24:57;;;;;;;;;2.80;1.40;;;;;9.69;57.50;99565.19;5034384;28;45415;-61
2021/12/04 14:27:30;;;;;;;;;0.80;0.80;;;;;9.49;58.00;99568.22;5048591;28;45406;-57
2021/12/04 14:30:01;;;;;;;;;4.40;2.00;;;;;9.59;58.47;99579.47;5047814;28;45461;-60
2021/12/04 14:32:31;;;;;;;;;5.20;2.80;;;;;9.47;58.18;99560.25;5032632;28;45529;-59
2021/12/04 14:35:00;;;;;;;;;1.80;1.00;;;;;9.53;57.47;99588.59;4981250;28;45288;-58
2021/12/04 14:37:25;;;;;;;;;4.60;1.80;;;;;9.57;57.41;99594.47;5008961;28;45545;-58
2021/12/04 14:39:51;;;;;;;;;3.25;1.50;;;;;9.28;56.96;99554.00;5004708;28;46880;-57
2021/12/04 14:42:17;;;;;;;;;1.75;0.50;;;;;9.32;57.30;99557.94;4997163;28;45468;-54
2021/12/04 14:44:46;;;;;;;;;1.50;1.50;;;;;9.53;57.67;99616.00;4996371;28;45400;-58
2021/12/04 14:47:11;;;;;;;;;1.80;1.80;;;;;9.47;57.36;99608.72;4980296;28;45684;-55
2021/12/04 14:49:40;;;;;;;;;1.50;1.50;;;;;9.00;54.96;99547.22;4990645;28;45469;-60
2021/12/04 14:52:06;;;;;;;;;1.00;1.00;;;;;8.80;56.61;99529.16;4977180;28;45950;-61
2021/12/04 14:54:34;;;;;;;;;1.40;1.40;;;;;9.33;56.52;99625.34;4995530;28;45560;-59
2021/12/04 14:57:11;;;;;;;;;1.00;1.00;;;;;9.33;57.88;99640.91;4994969;28;45496;-56
2021/12/04 14:59:37;;;;;;;;;3.20;1.80;;;;;9.29;57.33;99640.53;4978230;28;46453;-56
2021/12/04 15:02:13;;;;;;;;;2.00;2.00;;;;;9.20;57.75;99636.47;4995825;28;45359;-59